Time;durP1;ratioP1;P1;durP2;ratioP2;P2;SDS_P1;SDS_P2;PMS_P1;PMS_P2;Temp;Humidity;BMP_temperature;BMP_pressure;BME280_temperature;BME280_humidity;BME280_pressure;Samples;Min_cycle;Max_cycle;Signal;HPM_P1;HPM_P2
2021/09/25 00:00:38;;;;;;;10.87;9.03;;;12.10;99.90;;;;;;6089556;23;20611;-80
2021/09/25 00:03:26;;;;;;;11.27;9.80;;;12.00;99.90;;;;;;6088508;23;20579;-80
2021/09/25 00:05:57;;;;;;;10.97;9.37;;;12.00;99.90;;;;;;6090003;23;20555;-80
2021/09/25 00:08:44;;;;;;;10.77;9.70;;;12.00;99.90;;;;;;6088772;23;20595;-80
2021/09/25 00:11:29;;;;;;;9.93;8.90;;;11.90;99.90;;;;;;6090008;23;20591;-80
2021/09/25 00:14:06;;;;;;;11.00;9.13;;;11.90;99.90;;;;;;6089553;23;20599;-80
2021/09/25 00:16:44;;;;;;;8.50;7.70;;;11.90;99.90;;;;;;6088906;23;20600;-80
2021/09/25 00:19:25;;;;;;;12.90;8.70;;;11.70;99.90;;;;;;6089038;23;20586;-80
2021/09/25 00:22:03;;;;;;;12.97;8.30;;;11.70;99.90;;;;;;6089497;23;20686;-80
2021/09/25 00:24:42;;;;;;;10.03;9.03;;;11.80;99.90;;;;;;6089421;23;20703;-80
2021/09/25 00:27:25;;;;;;;10.07;9.00;;;11.70;99.90;;;;;;6088941;23;20649;-80
2021/09/25 00:30:13;;;;;;;11.33;9.00;;;11.80;99.90;;;;;;6088101;23;20915;-80
2021/09/25 00:32:56;;;;;;;11.43;9.13;;;11.70;99.90;;;;;;6090043;23;20565;-80
2021/09/25 00:35:39;;;;;;;11.33;9.17;;;11.70;99.90;;;;;;6089294;23;20627;-80
2021/09/25 00:38:20;;;;;;;10.37;8.07;;;11.70;99.90;;;;;;6089147;23;20558;-80
2021/09/25 00:40:51;;;;;;;10.13;9.13;;;11.70;99.90;;;;;;6089727;23;20647;-80
2021/09/25 00:43:38;;;;;;;11.57;10.47;;;11.80;99.90;;;;;;6087912;23;20575;-80
2021/09/25 00:46:24;;;;;;;10.70;9.07;;;11.80;99.90;;;;;;6088346;23;20589;-80
2021/09/25 00:49:02;;;;;;;11.17;9.00;;;11.80;99.90;;;;;;6089319;23;20946;-79
2021/09/25 00:51:38;;;;;;;10.00;8.70;;;11.80;99.90;;;;;;6089392;23;21106;-79
2021/09/25 00:54:25;;;;;;;12.33;10.00;;;11.80;99.90;;;;;;6088098;23;20591;-79
2021/09/25 00:56:59;;;;;;;10.47;9.43;;;11.80;99.90;;;;;;6088138;23;20610;-80
2021/09/25 00:59:46;;;;;;;13.00;9.73;;;11.80;99.90;;;;;;6089423;23;21077;-79
2021/09/25 01:02:31;;;;;;;19.13;10.20;;;11.80;99.90;;;;;;6089497;23;20588;-79
2021/09/25 01:05:20;;;;;;;12.40;10.27;;;11.80;99.90;;;;;;6087174;23;20618;-79
2021/09/25 01:08:08;;;;;;;10.43;9.33;;;11.70;99.90;;;;;;6088422;23;20588;-80
2021/09/25 01:10:56;;;;;;;10.30;8.87;;;11.70;99.90;;;;;;6090827;23;21196;-80
2021/09/25 01:13:26;;;;;;;10.10;8.20;;;11.70;99.90;;;;;;6090847;23;20679;-80
2021/09/25 01:16:10;;;;;;;10.90;9.33;;;11.70;99.90;;;;;;6090509;23;20610;-80
2021/09/25 01:18:57;;;;;;;13.67;8.80;;;11.70;99.90;;;;;;6089159;23;20578;-79
2021/09/25 01:21:45;;;;;;;11.30;8.87;;;11.80;99.90;;;;;;6088454;23;20575;-80
2021/09/25 01:24:33;;;;;;;11.40;8.87;;;11.80;99.90;;;;;;6089220;23;21179;-80
2021/09/25 01:27:20;;;;;;;9.83;8.37;;;11.90;99.90;;;;;;6089663;23;20601;-79
2021/09/25 01:30:11;;;;;;;10.30;8.40;;;11.90;99.90;;;;;;6088941;23;20943;-80
2021/09/25 01:33:00;;;;;;;10.90;9.50;;;11.70;99.90;;;;;;6089087;23;20597;-80
2021/09/25 01:35:47;;;;;;;10.07;9.07;;;11.60;99.90;;;;;;6088932;23;20702;-80
2021/09/25 01:38:36;;;;;;;12.80;10.60;;;11.60;99.90;;;;;;6087849;23;20627;-79
2021/09/25 01:41:23;;;;;;;11.07;9.97;;;11.50;99.90;;;;;;6089137;23;20586;-79
2021/09/25 01:44:10;;;;;;;10.73;9.60;;;11.40;99.90;;;;;;6089218;23;20997;-79
2021/09/25 01:46:58;;;;;;;11.20;9.47;;;11.40;99.90;;;;;;6088327;23;20579;-79
2021/09/25 01:49:46;;;;;;;10.60;8.47;;;11.40;99.90;;;;;;6089184;23;20613;-79
2021/09/25 01:52:32;;;;;;;10.67;8.53;;;11.30;99.90;;;;;;6089195;23;20685;-79
2021/09/25 01:55:21;;;;;;;10.13;9.13;;;11.30;99.90;;;;;;6088837;23;20669;-80
2021/09/25 01:58:07;;;;;;;11.07;9.40;;;11.40;99.90;;;;;;6088563;23;20966;-79
2021/09/25 02:00:44;;;;;;;10.20;9.20;;;11.40;99.90;;;;;;6090345;23;20582;-79
2021/09/25 02:03:35;;;;;;;13.30;10.63;;;11.40;99.90;;;;;;6088837;23;20610;-79
2021/09/25 02:06:22;;;;;;;10.53;9.40;;;11.50;99.90;;;;;;6089806;23;20590;-79
2021/09/25 02:09:09;;;;;;;10.90;8.80;;;11.60;99.90;;;;;;6090044;23;21191;-80
2021/09/25 02:11:57;;;;;;;9.63;8.70;;;11.50;99.90;;;;;;6088776;23;20617;-80
2021/09/25 02:14:44;;;;;;;10.13;9.07;;;11.50;99.90;;;;;;6090152;23;20678;-79
2021/09/25 02:17:30;;;;;;;10.30;9.10;;;11.40;99.90;;;;;;6089396;23;20632;-79
2021/09/25 02:20:17;;;;;;;9.47;8.43;;;11.40;99.90;;;;;;6088781;23;20979;-79
2021/09/25 02:23:04;;;;;;;10.63;8.20;;;11.40;99.90;;;;;;6089428;23;20586;-79
2021/09/25 02:25:51;;;;;;;9.67;8.67;;;11.70;99.90;;;;;;6090179;23;20599;-79
2021/09/25 02:28:40;;;;;;;9.53;8.63;;;11.50;99.90;;;;;;6088152;23;21005;-79
2021/09/25 02:31:26;;;;;;;10.30;9.20;;;11.40;99.90;;;;;;6088768;23;20674;-79
2021/09/25 02:34:13;;;;;;;11.03;9.77;;;11.30;99.90;;;;;;6089159;23;20702;-79
2021/09/25 02:37:00;;;;;;;11.03;9.40;;;11.20;99.90;;;;;;6087902;23;20623;-79
2021/09/25 02:39:47;;;;;;;9.47;8.47;;;11.10;99.90;;;;;;6088707;23;20681;-79
2021/09/25 02:42:34;;;;;;;11.53;8.40;;;11.20;99.90;;;;;;6089052;23;20625;-79
2021/09/25 02:45:22;;;;;;;9.53;8.53;;;11.10;99.90;;;;;;6089729;23;20591;-79
2021/09/25 02:48:09;;;;;;;9.10;8.23;;;11.20;99.90;;;;;;6088193;23;20636;-79
2021/09/25 02:50:56;;;;;;;8.77;7.87;;;11.10;99.90;;;;;;6089078;23;20562;-79
2021/09/25 02:53:38;;;;;;;9.17;7.70;;;11.10;99.90;;;;;;6090082;23;20587;-79
2021/09/25 02:56:24;;;;;;;8.87;7.97;;;11.10;99.90;;;;;;6089391;23;20621;-79
2021/09/25 02:59:11;;;;;;;7.93;7.13;;;11.10;99.90;;;;;;6089019;23;20678;-79
2021/09/25 03:01:59;;;;;;;8.53;7.73;;;11.10;99.90;;;;;;6088534;23;20591;-79
2021/09/25 03:04:46;;;;;;;8.87;7.70;;;11.00;99.90;;;;;;6089138;23;20973;-79
2021/09/25 03:07:33;;;;;;;9.40;7.70;;;10.90;99.90;;;;;;6088112;23;20930;-79
2021/09/25 03:10:20;;;;;;;9.20;7.70;;;10.90;99.90;;;;;;6088317;23;20654;-79
2021/09/25 03:13:07;;;;;;;9.40;8.40;;;10.90;99.90;;;;;;6088854;23;20618;-80
2021/09/25 03:15:54;;;;;;;9.83;8.00;;;10.70;99.90;;;;;;6088675;23;20590;-79
2021/09/25 03:18:42;;;;;;;8.73;7.53;;;10.70;99.90;;;;;;6087529;23;20635;-79
2021/09/25 03:21:29;;;;;;;8.40;7.60;;;10.80;99.90;;;;;;6089832;23;20599;-79
2021/09/25 03:24:16;;;;;;;10.40;9.30;;;10.70;99.90;;;;;;6086598;23;20617;-78
2021/09/25 03:27:03;;;;;;;10.13;8.47;;;10.90;99.90;;;;;;6087627;23;21150;-79
2021/09/25 03:29:50;;;;;;;9.67;8.17;;;10.90;99.90;;;;;;6086935;23;20626;-80
2021/09/25 03:32:37;;;;;;;9.90;8.90;;;10.90;99.90;;;;;;6088626;23;20610;-79
2021/09/25 03:35:26;;;;;;;11.63;9.37;;;11.00;99.90;;;;;;6088531;23;20625;-79
2021/09/25 03:38:13;;;;;;;8.03;7.00;;;11.00;99.90;;;;;;6087641;23;20634;-79
2021/09/25 03:41:00;;;;;;;11.80;8.10;;;10.90;99.90;;;;;;6088552;23;20670;-79
2021/09/25 03:43:50;;;;;;;9.07;7.80;;;10.90;99.90;;;;;;6088591;23;20681;-79
2021/09/25 03:46:37;;;;;;;8.23;7.53;;;10.80;99.90;;;;;;6088251;23;20941;-79
2021/09/25 03:49:24;;;;;;;10.17;8.13;;;10.80;99.90;;;;;;6088614;23;20763;-79
2021/09/25 03:52:03;;;;;;;10.53;9.40;;;10.90;99.90;;;;;;6086366;23;20975;-80
2021/09/25 03:54:50;;;;;;;12.30;9.13;;;10.90;99.90;;;;;;6088532;23;20954;-79
2021/09/25 03:57:36;;;;;;;10.33;8.00;;;11.20;99.90;;;;;;6087209;23;20642;-79
2021/09/25 04:00:24;;;;;;;8.80;7.90;;;10.90;99.90;;;;;;6087395;23;20681;-79
2021/09/25 04:03:11;;;;;;;11.60;9.10;;;10.90;99.90;;;;;;6088474;23;20690;-79
2021/09/25 04:05:58;;;;;;;11.13;8.10;;;10.90;99.90;;;;;;6088612;23;20975;-79
2021/09/25 04:08:46;;;;;;;10.70;9.07;;;11.40;99.90;;;;;;6088117;23;20586;-79
2021/09/25 04:11:33;;;;;;;9.80;8.77;;;11.00;99.90;;;;;;6089719;23;20601;-79
2021/09/25 04:14:21;;;;;;;12.97;9.20;;;11.00;99.90;;;;;;6089813;23;21147;-79
2021/09/25 04:17:08;;;;;;;11.10;9.20;;;11.00;99.90;;;;;;6088754;23;20633;-79
2021/09/25 04:19:54;;;;;;;12.07;10.73;;;10.90;99.90;;;;;;6085260;23;20656;-79
2021/09/25 04:22:41;;;;;;;11.47;9.30;;;11.10;99.90;;;;;;6087686;23;20672;-78
2021/09/25 04:25:31;;;;;;;10.30;9.17;;;10.90;99.90;;;;;;6089146;23;21516;-79
2021/09/25 04:28:18;;;;;;;12.40;9.33;;;10.80;99.90;;;;;;6087314;23;20603;-79
2021/09/25 04:31:05;;;;;;;10.00;9.00;;;11.10;99.90;;;;;;6088131;23;20587;-79
2021/09/25 04:33:52;;;;;;;10.50;8.33;;;10.70;99.90;;;;;;6089373;23;20662;-78
2021/09/25 04:36:40;;;;;;;11.57;9.33;;;10.50;99.90;;;;;;6085086;23;20629;-79
2021/09/25 04:39:21;;;;;;;9.43;8.13;;;10.60;99.90;;;;;;6089235;22;21119;-79
2021/09/25 04:42:09;;;;;;;11.23;8.70;;;10.70;99.90;;;;;;6089776;23;20652;-79
2021/09/25 04:44:56;;;;;;;11.17;9.90;;;10.70;99.90;;;;;;6089135;23;20606;-79
2021/09/25 04:47:45;;;;;;;11.67;10.27;;;10.70;99.90;;;;;;6088670;23;21148;-79
2021/09/25 04:50:32;;;;;;;9.50;8.10;;;11.30;99.90;;;;;;6089330;23;20581;-79
2021/09/25 04:53:19;;;;;;;9.73;8.70;;;10.70;99.90;;;;;;6089357;23;20591;-79
2021/09/25 04:56:06;;;;;;;8.93;7.40;;;10.70;99.90;;;;;;6089213;23;21116;-79
2021/09/25 04:58:52;;;;;;;11.13;9.10;;;10.70;99.90;;;;;;6089940;23;20567;-79
2021/09/25 05:01:39;;;;;;;8.93;8.13;;;10.70;99.90;;;;;;6090565;23;20603;-79
2021/09/25 05:04:26;;;;;;;10.87;9.73;;;10.60;99.90;;;;;;6089531;23;20587;-79
2021/09/25 05:07:12;;;;;;;14.40;8.97;;;10.60;99.90;;;;;;6088340;23;20681;-78
2021/09/25 05:09:59;;;;;;;11.60;8.43;;;10.60;99.90;;;;;;6090411;23;20618;-79
2021/09/25 05:12:46;;;;;;;11.00;8.03;;;10.60;99.90;;;;;;6088938;23;20603;-79
2021/09/25 05:15:34;;;;;;;11.40;8.33;;;10.50;99.90;;;;;;6089332;23;20590;-79
2021/09/25 05:18:21;;;;;;;9.50;7.90;;;10.40;99.90;;;;;;6088485;23;20666;-79
2021/09/25 05:21:08;;;;;;;16.17;7.80;;;10.40;99.90;;;;;;6089175;23;20961;-79
2021/09/25 05:23:55;;;;;;;9.57;8.43;;;10.40;99.90;;;;;;6088895;23;20590;-79
2021/09/25 05:26:42;;;;;;;8.83;7.77;;;10.40;99.90;;;;;;6088511;23;20922;-79
2021/09/25 05:29:29;;;;;;;11.40;7.73;;;10.20;99.90;;;;;;6090277;23;20632;-79
2021/09/25 05:32:18;;;;;;;10.40;8.17;;;11.30;99.90;;;;;;6089328;23;20633;-79
2021/09/25 05:35:06;;;;;;;11.20;7.30;;;10.40;99.90;;;;;;6088163;23;20626;-78
2021/09/25 05:37:53;;;;;;;9.07;8.13;;;10.50;99.90;;;;;;6087605;23;20713;-78
2021/09/25 05:40:40;;;;;;;9.40;8.50;;;10.40;99.90;;;;;;6089214;23;20570;-79
2021/09/25 05:43:26;;;;;;;11.40;8.50;;;10.50;99.90;;;;;;6088987;23;20654;-79
2021/09/25 05:46:13;;;;;;;9.80;8.80;;;10.50;99.90;;;;;;6089135;23;20586;-78
2021/09/25 05:49:01;;;;;;;13.17;8.63;;;10.50;99.90;;;;;;6088992;23;20665;-79
2021/09/25 05:51:48;;;;;;;9.23;8.03;;;10.50;99.90;;;;;;6089069;23;20946;-79
2021/09/25 05:54:36;;;;;;;9.33;7.60;;;10.60;99.90;;;;;;6086647;23;20681;-79
2021/09/25 05:57:23;;;;;;;10.37;8.00;;;10.60;99.90;;;;;;6088319;23;20662;-79
2021/09/25 06:00:10;;;;;;;10.73;7.97;;;10.80;99.90;;;;;;6089154;23;20600;-79
2021/09/25 06:02:57;;;;;;;9.43;7.87;;;10.80;99.90;;;;;;6089176;23;20602;-79
2021/09/25 06:05:44;;;;;;;8.80;7.90;;;11.00;99.90;;;;;;6090769;23;20551;-78
2021/09/25 06:08:21;;;;;;;10.27;9.27;;;11.00;99.90;;;;;;6089173;23;20601;-78
2021/09/25 06:11:02;;;;;;;10.40;8.37;;;11.00;99.90;;;;;;6090521;23;20685;-79
2021/09/25 06:13:48;;;;;;;10.30;8.93;;;11.00;99.90;;;;;;6089201;23;20614;-78
2021/09/25 06:16:25;;;;;;;12.50;9.43;;;11.10;99.90;;;;;;6090189;23;20645;-78
2021/09/25 06:19:12;;;;;;;9.00;8.10;;;11.20;99.90;;;;;;6088946;23;20658;-79
2021/09/25 06:21:55;;;;;;;10.37;9.20;;;11.20;99.90;;;;;;6087283;23;20586;-78
2021/09/25 06:24:42;;;;;;;12.23;8.83;;;11.30;99.90;;;;;;6088835;23;20965;-78
2021/09/25 06:27:29;;;;;;;9.63;8.70;;;11.30;99.90;;;;;;6087286;23;20574;-78
2021/09/25 06:30:16;;;;;;;13.83;10.80;;;11.40;99.90;;;;;;6087258;23;20594;-78
2021/09/25 06:33:02;;;;;;;11.43;9.07;;;11.50;99.90;;;;;;6089861;23;20578;-78
2021/09/25 06:35:49;;;;;;;12.33;9.80;;;11.50;99.90;;;;;;6088612;23;20690;-79
2021/09/25 06:38:38;;;;;;;11.37;9.80;;;11.60;99.90;;;;;;6089022;23;20709;-78
2021/09/25 06:41:21;;;;;;;10.80;9.80;;;11.60;99.90;;;;;;6090512;23;20565;-79
2021/09/25 06:44:01;;;;;;;13.83;9.10;;;11.70;99.90;;;;;;6090473;23;20958;-79
2021/09/25 06:46:40;;;;;;;11.57;9.40;;;11.80;99.90;;;;;;6089357;23;20531;-79
2021/09/25 06:49:23;;;;;;;10.90;7.80;;;11.90;99.90;;;;;;6089520;23;20540;-78
2021/09/25 06:52:11;;;;;;;12.10;8.30;;;12.00;99.90;;;;;;6088630;23;20585;-79
2021/09/25 06:54:59;;;;;;;9.90;8.90;;;12.30;99.90;;;;;;6088899;23;20591;-79
2021/09/25 06:57:46;;;;;;;9.33;8.07;;;12.40;99.90;;;;;;6089293;23;20637;-79
2021/09/25 07:00:34;;;;;;;8.70;7.70;;;12.60;99.90;;;;;;6088443;23;20920;-79
2021/09/25 07:03:21;;;;;;;9.70;8.27;;;12.80;99.90;;;;;;6088522;23;20634;-79
2021/09/25 07:06:08;;;;;;;9.53;8.00;;;13.00;99.90;;;;;;6088600;23;20588;-80
2021/09/25 07:08:54;;;;;;;9.50;7.70;;;13.10;99.90;;;;;;6088834;23;20620;-79
2021/09/25 07:11:43;;;;;;;8.70;7.33;;;13.20;99.90;;;;;;6088786;23;20668;-79
2021/09/25 07:14:30;;;;;;;8.17;6.90;;;13.40;99.90;;;;;;6088920;23;20922;-79
2021/09/25 07:17:16;;;;;;;8.10;6.50;;;13.60;99.90;;;;;;6088152;23;20659;-80
2021/09/25 07:20:04;;;;;;;7.73;6.77;;;13.70;99.90;;;;;;6087817;23;20607;-79
2021/09/25 07:22:45;;;;;;;8.43;7.20;;;13.80;99.90;;;;;;6089923;23;20540;-79
2021/09/25 07:25:33;;;;;;;7.47;6.77;;;14.00;99.90;;;;;;6088822;23;20608;-79
2021/09/25 07:28:14;;;;;;;8.27;6.47;;;14.00;99.90;;;;;;6088577;23;20717;-79
2021/09/25 07:31:01;;;;;;;7.10;6.40;;;14.10;99.90;;;;;;6088746;23;20628;-79
2021/09/25 07:33:51;;;;;;;11.50;6.97;;;14.20;99.90;;;;;;6088681;23;20701;-79
2021/09/25 07:36:37;;;;;;;7.57;6.87;;;14.40;99.90;;;;;;6087681;23;20681;-79
2021/09/25 07:39:24;;;;;;;7.60;6.90;;;14.70;99.80;;;;;;6089930;23;20981;-79
2021/09/25 07:42:11;;;;;;;11.00;6.97;;;14.80;99.90;;;;;;6088596;23;20668;-79
2021/09/25 07:44:59;;;;;;;6.10;5.50;;;14.90;99.70;;;;;;6089047;23;20630;-79
2021/09/25 07:47:46;;;;;;;6.50;5.57;;;15.00;99.90;;;;;;6087541;23;20657;-79
2021/09/25 07:50:33;;;;;;;5.93;5.37;;;15.10;99.80;;;;;;6088753;23;20609;-79
2021/09/25 07:53:20;;;;;;;5.33;4.93;;;15.20;99.90;;;;;;6088512;23;20622;-79
2021/09/25 07:56:07;;;;;;;6.60;6.00;;;15.20;99.90;;;;;;6088580;23;20613;-79
2021/09/25 07:58:54;;;;;;;5.67;5.07;;;15.30;99.60;;;;;;6088317;23;21147;-79
2021/09/25 08:01:37;;;;;;;5.80;5.30;;;15.30;99.80;;;;;;6089659;23;21216;-79
2021/09/25 08:04:24;;;;;;;5.33;4.80;;;15.50;98.50;;;;;;6088335;23;20682;-79
2021/09/25 08:07:11;;;;;;;9.00;5.43;;;15.60;98.30;;;;;;6086012;23;20593;-79
2021/09/25 08:09:45;;;;;;;6.90;6.10;;;15.80;98.40;;;;;;6088935;23;20538;-80
2021/09/25 08:12:32;;;;;;;6.40;5.90;;;15.80;98.10;;;;;;6089251;23;20629;-79
2021/09/25 08:15:19;;;;;;;5.50;5.00;;;16.00;97.80;;;;;;6088250;23;20604;-79
2021/09/25 08:18:08;;;;;;;8.83;6.13;;;16.00;97.80;;;;;;6087106;23;20629;-79
2021/09/25 08:20:55;;;;;;;6.67;5.43;;;16.30;98.10;;;;;;6088203;23;21137;-79
2021/09/25 08:23:42;;;;;;;6.00;5.43;;;16.50;96.90;;;;;;6088185;23;20666;-79
2021/09/25 08:26:29;;;;;;;5.87;5.30;;;16.60;97.20;;;;;;6087860;23;20594;-79
2021/09/25 08:29:16;;;;;;;6.30;5.60;;;16.70;97.40;;;;;;6087996;23;20677;-79
2021/09/25 08:32:06;;;;;;;6.13;5.03;;;16.80;96.80;;;;;;6086459;23;20678;-79
2021/09/25 08:34:54;;;;;;;6.30;5.20;;;16.90;95.90;;;;;;6086609;23;20710;-79
2021/09/25 08:37:41;;;;;;;5.10;4.70;;;17.10;95.60;;;;;;6087589;23;20632;-80
2021/09/25 08:40:28;;;;;;;7.80;6.30;;;17.20;95.50;;;;;;6086558;23;20596;-79
2021/09/25 08:43:06;;;;;;;5.50;4.70;;;17.30;95.80;;;;;;6089255;23;20589;-79
2021/09/25 08:45:57;;;;;;;4.97;4.57;;;17.50;96.00;;;;;;6087909;23;21196;-80
2021/09/25 08:48:44;;;;;;;5.53;4.97;;;17.50;96.10;;;;;;6088250;23;20718;-79
2021/09/25 08:51:25;;;;;;;5.10;4.60;;;17.60;95.50;;;;;;6088296;23;20584;-79
2021/09/25 08:54:12;;;;;;;5.70;5.20;;;17.80;94.60;;;;;;6087938;23;20589;-80
2021/09/25 08:56:59;;;;;;;6.13;5.53;;;17.90;95.60;;;;;;6089213;23;20684;-80
2021/09/25 08:59:33;;;;;;;5.03;4.63;;;18.00;95.00;;;;;;6088630;23;20558;-79
2021/09/25 09:02:21;;;;;;;5.87;5.30;;;18.20;94.60;;;;;;6089101;23;21179;-79
2021/09/25 09:05:09;;;;;;;5.07;4.57;;;18.30;94.70;;;;;;6088124;23;21152;-79
2021/09/25 09:07:50;;;;;;;6.90;5.20;;;18.40;94.60;;;;;;6089455;23;20546;-79
2021/09/25 09:10:37;;;;;;;6.77;6.20;;;18.50;94.90;;;;;;6088931;23;20590;-80
2021/09/25 09:13:25;;;;;;;5.90;5.40;;;18.60;95.10;;;;;;6088241;23;20623;-80
2021/09/25 09:16:07;;;;;;;5.53;5.03;;;18.70;94.10;;;;;;6089638;23;20680;-79
2021/09/25 09:18:54;;;;;;;6.67;5.57;;;19.00;93.40;;;;;;6088000;23;20975;-80
2021/09/25 09:21:43;;;;;;;5.57;5.07;;;19.00;93.10;;;;;;6089206;23;20677;-80
2021/09/25 09:24:42;;;;;;;6.03;5.50;;;19.20;93.30;;;;;;6088099;23;20590;-80
2021/09/25 09:27:32;;;;;;;6.17;5.67;;;19.30;92.90;;;;;;6087810;23;20690;-79
2021/09/25 09:30:19;;;;;;;5.87;5.37;;;19.30;93.80;;;;;;6089461;23;20590;-80
2021/09/25 09:33:06;;;;;;;5.83;5.17;;;19.50;92.60;;;;;;6090493;23;20670;-80
2021/09/25 09:35:53;;;;;;;6.97;6.07;;;19.50;92.50;;;;;;6089291;23;20624;-80
2021/09/25 09:38:40;;;;;;;6.27;5.67;;;19.70;92.90;;;;;;6087837;23;20636;-80
2021/09/25 09:41:30;;;;;;;6.83;6.13;;;19.60;92.90;;;;;;6088040;23;20645;-80
2021/09/25 09:44:11;;;;;;;7.00;5.80;;;19.70;92.80;;;;;;6090384;23;20598;-80
2021/09/25 09:47:00;;;;;;;6.43;5.80;;;19.70;93.10;;;;;;6089308;23;20610;-80
2021/09/25 09:49:47;;;;;;;6.63;5.93;;;19.60;93.10;;;;;;6089443;23;20733;-80
2021/09/25 09:52:34;;;;;;;7.00;5.43;;;19.60;93.10;;;;;;6089435;23;20622;-80
2021/09/25 09:55:22;;;;;;;5.03;4.60;;;19.80;92.40;;;;;;6090662;23;20648;-80
2021/09/25 09:58:14;;;;;;;8.63;5.90;;;19.70;93.20;;;;;;6088975;23;20583;-80
2021/09/25 10:01:01;;;;;;;8.70;6.27;;;19.80;93.40;;;;;;6089659;23;20679;-80
2021/09/25 10:04:06;;;;;;;6.67;5.90;;;19.90;93.20;;;;;;6090455;23;20601;-80
2021/09/25 10:07:09;;;;;;;5.90;5.40;;;20.20;92.50;;;;;;6088120;23;20595;-81
2021/09/25 10:09:50;;;;;;;5.83;5.33;;;20.10;91.20;;;;;;6088797;23;20621;-81
2021/09/25 10:12:43;;;;;;;5.50;5.10;;;20.40;91.70;;;;;;6090059;23;20586;-81
2021/09/25 10:15:47;;;;;;;5.53;5.03;;;20.30;90.60;;;;;;6091528;23;20551;-81
2021/09/25 10:18:37;;;;;;;6.20;5.70;;;20.50;91.80;;;;;;6088405;23;20580;-81
2021/09/25 10:21:27;;;;;;;6.20;5.60;;;20.50;91.50;;;;;;6089547;22;20657;-81
2021/09/25 10:24:21;;;;;;;6.43;5.73;;;20.60;91.30;;;;;;6090414;23;20552;-81
2021/09/25 10:27:13;;;;;;;7.10;5.13;;;20.50;91.50;;;;;;6086288;23;20962;-81
2021/09/25 10:30:04;;;;;;;5.43;5.03;;;20.50;91.90;;;;;;6087480;23;20636;-82
2021/09/25 10:32:55;;;;;;;8.20;5.00;;;20.70;90.70;;;;;;6088554;23;20586;-81
2021/09/25 10:35:46;;;;;;;6.83;5.93;;;20.50;91.60;;;;;;6089992;23;21188;-80
2021/09/25 10:38:39;;;;;;;6.30;5.70;;;20.80;90.70;;;;;;6087795;23;21131;-80
2021/09/25 10:41:20;;;;;;;5.43;4.93;;;20.80;90.70;;;;;;6088312;23;20584;-79
2021/09/25 10:44:24;;;;;;;5.80;5.30;;;20.80;91.20;;;;;;6089048;23;20687;-80
2021/09/25 10:47:13;;;;;;;6.77;6.10;;;21.10;90.60;;;;;;6088707;23;20599;-80
2021/09/25 10:50:02;;;;;;;5.33;4.83;;;21.10;90.30;;;;;;6088541;23;21174;-81
2021/09/25 10:53:05;;;;;;;6.70;6.10;;;21.20;90.00;;;;;;6090054;23;20647;-80
2021/09/25 10:55:54;;;;;;;7.70;5.10;;;21.30;89.70;;;;;;6089231;23;20685;-80
2021/09/25 10:58:41;;;;;;;6.80;5.03;;;21.40;89.70;;;;;;6090084;23;20679;-80
2021/09/25 11:01:33;;;;;;;6.03;5.53;;;21.30;89.50;;;;;;6089061;23;20617;-80
2021/09/25 11:04:21;;;;;;;6.37;5.70;;;21.40;90.20;;;;;;6087337;23;20586;-80
2021/09/25 11:07:30;;;;;;;6.40;5.80;;;21.40;89.90;;;;;;6087807;23;21183;-80
2021/09/25 11:10:36;;;;;;;13.00;5.30;;;21.40;90.90;;;;;;6088769;23;20623;-80
2021/09/25 11:14:06;;;;;;;4.90;4.60;;;21.50;91.40;;;;;;6088738;23;20578;-81
2021/09/25 11:17:02;;;;;;;5.90;5.30;;;21.50;90.90;;;;;;6088773;23;20602;-81
2021/09/25 11:19:53;;;;;;;5.47;4.97;;;21.60;89.80;;;;;;6089679;23;20617;-80
2021/09/25 11:22:47;;;;;;;5.60;5.20;;;21.60;89.00;;;;;;6088935;23;20680;-80
2021/09/25 11:25:34;;;;;;;9.77;6.63;;;21.70;89.40;;;;;;6089032;23;20574;-81
2021/09/25 11:28:22;;;;;;;5.57;5.17;;;21.70;90.00;;;;;;6089097;23;20597;-80
2021/09/25 11:31:10;;;;;;;6.10;5.20;;;21.90;87.40;;;;;;6087280;23;20620;-81
2021/09/25 11:33:57;;;;;;;5.30;4.80;;;21.90;88.20;;;;;;6088765;23;20633;-80
2021/09/25 11:36:50;;;;;;;5.20;4.80;;;21.90;90.40;;;;;;6088802;23;20693;-81
2021/09/25 11:39:40;;;;;;;5.50;5.10;;;21.90;88.50;;;;;;6090001;23;20595;-81
2021/09/25 11:42:29;;;;;;;5.20;4.70;;;21.90;88.60;;;;;;6089068;23;20613;-81
2021/09/25 11:45:18;;;;;;;5.63;5.13;;;22.00;89.20;;;;;;6088722;23;21065;-81
2021/09/25 11:48:06;;;;;;;6.60;5.90;;;21.90;88.70;;;;;;6088729;23;20907;-81
2021/09/25 11:50:54;;;;;;;5.87;5.33;;;22.30;87.00;;;;;;6088482;23;20682;-81
2021/09/25 11:53:45;;;;;;;10.50;9.20;;;22.10;86.90;;;;;;6088788;23;20624;-82
2021/09/25 11:56:34;;;;;;;8.50;5.43;;;22.20;86.80;;;;;;6089125;23;20587;-81
2021/09/25 11:59:21;;;;;;;6.30;5.17;;;22.30;86.20;;;;;;6088346;23;20679;-81
2021/09/25 12:02:08;;;;;;;6.10;5.60;;;22.20;85.60;;;;;;6088801;23;20563;-82
2021/09/25 12:04:55;;;;;;;5.70;5.20;;;22.20;87.00;;;;;;6088752;23;20623;-81
2021/09/25 12:07:44;;;;;;;5.33;4.83;;;22.20;86.60;;;;;;6089742;22;20596;-81
2021/09/25 12:10:34;;;;;;;4.70;4.30;;;22.30;87.60;;;;;;6088558;23;20640;-82
2021/09/25 12:13:23;;;;;;;7.00;5.13;;;22.40;85.20;;;;;;6088207;23;20690;-81
2021/09/25 12:16:12;;;;;;;4.87;4.57;;;22.40;86.70;;;;;;6088852;23;20617;-81
2021/09/25 12:18:59;;;;;;;4.57;4.23;;;22.40;85.50;;;;;;6087403;23;20596;-82
2021/09/25 12:21:50;;;;;;;4.90;4.40;;;22.70;84.00;;;;;;6088634;23;20589;-82
2021/09/25 12:24:37;;;;;;;5.20;4.70;;;22.60;85.00;;;;;;6088583;23;20601;-81
2021/09/25 12:27:28;;;;;;;4.97;4.57;;;22.80;82.00;;;;;;6089325;23;20584;-81
2021/09/25 12:30:14;;;;;;;5.80;4.40;;;22.70;81.20;;;;;;6088675;23;21007;-82
2021/09/25 12:33:03;;;;;;;5.03;4.63;;;22.50;84.20;;;;;;6089704;23;20590;-83
2021/09/25 12:36:15;;;;;;;5.77;5.37;;;22.70;82.90;;;;;;6088122;23;20624;-81
2021/09/25 12:39:06;;;;;;;5.43;5.03;;;22.90;82.40;;;;;;6084682;23;21233;-82
2021/09/25 12:41:55;;;;;;;6.00;5.40;;;23.00;82.60;;;;;;6088375;23;20652;-82
2021/09/25 12:44:42;;;;;;;8.00;5.13;;;23.10;81.40;;;;;;6089481;23;20647;-83
2021/09/25 12:47:31;;;;;;;4.83;4.43;;;23.20;80.90;;;;;;6087561;23;20617;-82
2021/09/25 12:50:21;;;;;;;4.20;3.80;;;23.10;78.90;;;;;;6089176;23;20688;-81
2021/09/25 12:53:15;;;;;;;5.73;5.23;;;23.00;78.80;;;;;;6090128;23;21048;-82
2021/09/25 12:56:13;;;;;;;5.30;4.90;;;23.30;78.30;;;;;;6088469;23;20583;-82
2021/09/25 12:59:01;;;;;;;4.73;4.33;;;23.30;78.60;;;;;;6089447;23;21215;-82
2021/09/25 13:01:49;;;;;;;3.90;3.60;;;23.30;79.40;;;;;;6089679;23;20534;-82
2021/09/25 13:04:41;;;;;;;3.77;3.47;;;23.40;75.00;;;;;;6087523;23;20575;-82
2021/09/25 13:07:29;;;;;;;4.53;4.13;;;23.30;76.30;;;;;;6088829;23;21276;-82
2021/09/25 13:10:20;;;;;;;3.50;3.30;;;23.30;78.20;;;;;;6087098;23;20583;-82
2021/09/25 13:13:16;;;;;;;3.43;3.23;;;23.40;75.00;;;;;;6088566;23;21150;-82
2021/09/25 13:16:10;;;;;;;4.03;3.63;;;23.50;72.50;;;;;;6090257;23;21170;-81
2021/09/25 13:18:59;;;;;;;3.70;3.50;;;23.60;75.50;;;;;;6088783;23;21162;-82
2021/09/25 13:21:44;;;;;;;3.90;3.57;;;23.70;75.00;;;;;;6090360;23;20621;-82
2021/09/25 13:24:31;;;;;;;3.60;3.40;;;23.70;77.20;;;;;;6090469;23;20678;-82
2021/09/25 13:27:18;;;;;;;4.37;4.07;;;23.90;74.40;;;;;;6088985;23;20988;-82
2021/09/25 13:30:06;;;;;;;3.27;3.07;;;23.80;77.70;;;;;;6090404;23;21121;-82
2021/09/25 13:32:55;;;;;;;3.93;3.60;;;23.90;82.00;;;;;;6088829;23;20626;-83
2021/09/25 13:35:42;;;;;;;4.03;3.73;;;24.10;75.50;;;;;;6090461;23;20629;-82
2021/09/25 13:38:30;;;;;;;3.37;3.07;;;24.20;80.90;;;;;;6088076;23;20674;-82
2021/09/25 13:41:18;;;;;;;4.20;3.90;;;24.20;75.10;;;;;;6089036;23;20603;-82
2021/09/25 13:44:05;;;;;;;2.80;2.60;;;24.30;75.80;;;;;;6089044;23;21247;-82
2021/09/25 13:46:52;;;;;;;3.33;3.03;;;24.30;74.00;;;;;;6088969;23;20609;-82
2021/09/25 13:49:40;;;;;;;3.27;3.07;;;25.00;69.30;;;;;;6087860;23;20598;-82
2021/09/25 13:52:27;;;;;;;4.67;4.27;;;24.50;72.80;;;;;;6089244;23;20614;-82
2021/09/25 13:55:15;;;;;;;3.23;3.03;;;24.70;73.00;;;;;;6088061;23;20591;-82
2021/09/25 13:58:02;;;;;;;3.33;3.00;;;24.70;72.40;;;;;;6087624;23;20618;-82
2021/09/25 14:00:49;;;;;;;3.60;3.30;;;24.80;71.80;;;;;;6088445;23;20625;-82
2021/09/25 14:03:36;;;;;;;2.83;2.67;;;24.60;71.60;;;;;;6089169;23;20575;-82
2021/09/25 14:06:23;;;;;;;5.07;3.30;;;24.70;71.80;;;;;;6088663;23;20645;-81
2021/09/25 14:09:10;;;;;;;28.17;9.00;;;24.70;70.60;;;;;;6088914;23;20681;-82
2021/09/25 14:11:59;;;;;;;10.40;5.97;;;24.80;72.90;;;;;;6089236;23;21115;-82
2021/09/25 14:14:46;;;;;;;41.50;7.67;;;24.90;75.40;;;;;;6090088;23;21460;-82
2021/09/25 14:17:33;;;;;;;6.90;5.80;;;24.90;77.90;;;;;;6088471;23;20583;-82
2021/09/25 14:20:18;;;;;;;3.40;3.20;;;24.70;76.40;;;;;;6090215;23;20710;-82
2021/09/25 14:23:05;;;;;;;11.33;7.97;;;24.80;75.00;;;;;;6088480;23;20583;-82
2021/09/25 14:25:43;;;;;;;6.50;4.77;;;24.70;75.00;;;;;;6090133;23;20587;-83